sensor_id;sensor_type;location;lat;lon;timestamp;P1;durP1;ratioP1;P2;durP2;ratioP2
72125;SDS011;59999;51.676;22.650;2023-07-22T00:00:06;13.37;;;8.20;;
72125;SDS011;59999;51.676;22.650;2023-07-22T00:02:54;14.10;;;8.15;;
72125;SDS011;59999;51.676;22.650;2023-07-22T00:05:20;12.70;;;7.70;;
72125;SDS011;59999;51.676;22.650;2023-07-22T00:07:49;12.23;;;7.40;;
72125;SDS011;59999;51.676;22.650;2023-07-22T00:10:16;10.68;;;6.97;;
72125;SDS011;59999;51.676;22.650;2023-07-22T00:12:42;12.60;;;7.00;;
72125;SDS011;59999;51.676;22.650;2023-07-22T00:15:08;11.33;;;7.47;;
72125;SDS011;59999;51.676;22.650;2023-07-22T00:17:38;11.90;;;6.72;;
72125;SDS011;59999;51.676;22.650;2023-07-22T00:20:05;11.15;;;7.10;;
72125;SDS011;59999;51.676;22.650;2023-07-22T00:22:32;12.32;;;6.80;;
72125;SDS011;59999;51.676;22.650;2023-07-22T00:24:58;10.97;;;6.57;;
72125;SDS011;59999;51.676;22.650;2023-07-22T00:27:27;11.70;;;7.05;;
72125;SDS011;59999;51.676;22.650;2023-07-22T00:29:53;11.50;;;6.80;;
72125;SDS011;59999;51.676;22.650;2023-07-22T00:32:19;11.70;;;7.30;;
72125;SDS011;59999;51.676;22.650;2023-07-22T00:34:45;11.60;;;7.03;;
72125;SDS011;59999;51.676;22.650;2023-07-22T00:37:11;11.07;;;6.57;;
72125;SDS011;59999;51.676;22.650;2023-07-22T00:39:37;11.53;;;7.30;;
72125;SDS011;59999;51.676;22.650;2023-07-22T00:42:03;11.70;;;6.82;;
72125;SDS011;59999;51.676;22.650;2023-07-22T00:44:29;11.40;;;6.57;;
72125;SDS011;59999;51.676;22.650;2023-07-22T00:46:55;10.40;;;6.20;;
72125;SDS011;59999;51.676;22.650;2023-07-22T00:49:23;9.60;;;6.63;;
72125;SDS011;59999;51.676;22.650;2023-07-22T00:51:51;12.98;;;6.35;;
72125;SDS011;59999;51.676;22.650;2023-07-22T00:54:17;10.40;;;6.57;;
72125;SDS011;59999;51.676;22.650;2023-07-22T00:56:43;10.63;;;6.17;;
72125;SDS011;59999;51.676;22.650;2023-07-22T00:59:10;10.75;;;6.57;;
72125;SDS011;59999;51.676;22.650;2023-07-22T01:01:36;11.02;;;6.28;;
72125;SDS011;59999;51.676;22.650;2023-07-22T01:04:02;9.93;;;6.30;;
72125;SDS011;59999;51.676;22.650;2023-07-22T01:06:29;9.73;;;6.45;;
72125;SDS011;59999;51.676;22.650;2023-07-22T01:08:59;9.43;;;6.03;;
72125;SDS011;59999;51.676;22.650;2023-07-22T01:11:25;10.23;;;6.25;;
72125;SDS011;59999;51.676;22.650;2023-07-22T01:13:51;10.23;;;6.80;;
72125;SDS011;59999;51.676;22.650;2023-07-22T01:16:24;10.47;;;5.93;;
72125;SDS011;59999;51.676;22.650;2023-07-22T01:18:52;11.32;;;6.43;;
72125;SDS011;59999;51.676;22.650;2023-07-22T01:21:19;11.35;;;6.20;;
72125;SDS011;59999;51.676;22.650;2023-07-22T01:23:50;11.43;;;5.93;;
72125;SDS011;59999;51.676;22.650;2023-07-22T01:26:16;10.30;;;6.22;;
72125;SDS011;59999;51.676;22.650;2023-07-22T01:28:42;10.83;;;6.30;;
72125;SDS011;59999;51.676;22.650;2023-07-22T01:31:09;11.82;;;6.22;;
72125;SDS011;59999;51.676;22.650;2023-07-22T01:33:35;10.10;;;6.35;;
72125;SDS011;59999;51.676;22.650;2023-07-22T01:36:01;9.68;;;6.32;;
72125;SDS011;59999;51.676;22.650;2023-07-22T01:38:28;11.13;;;6.43;;
72125;SDS011;59999;51.676;22.650;2023-07-22T01:40:55;10.43;;;6.40;;
72125;SDS011;59999;51.676;22.650;2023-07-22T01:43:20;11.77;;;6.80;;
72125;SDS011;59999;51.676;22.650;2023-07-22T01:45:47;11.63;;;6.95;;
72125;SDS011;59999;51.676;22.650;2023-07-22T01:48:13;12.98;;;6.47;;
72125;SDS011;59999;51.676;22.650;2023-07-22T01:50:39;9.77;;;6.03;;
72125;SDS011;59999;51.676;22.650;2023-07-22T01:53:04;10.10;;;5.95;;
72125;SDS011;59999;51.676;22.650;2023-07-22T01:55:31;9.82;;;6.07;;
72125;SDS011;59999;51.676;22.650;2023-07-22T01:57:57;10.53;;;6.40;;
72125;SDS011;59999;51.676;22.650;2023-07-22T02:00:24;9.15;;;6.03;;
72125;SDS011;59999;51.676;22.650;2023-07-22T02:02:49;12.90;;;5.90;;
72125;SDS011;59999;51.676;22.650;2023-07-22T02:05:16;10.48;;;6.22;;
72125;SDS011;59999;51.676;22.650;2023-07-22T02:07:41;10.73;;;6.40;;
72125;SDS011;59999;51.676;22.650;2023-07-22T02:10:08;10.93;;;6.38;;
72125;SDS011;59999;51.676;22.650;2023-07-22T02:12:35;9.60;;;5.80;;
72125;SDS011;59999;51.676;22.650;2023-07-22T02:15:01;9.60;;;6.03;;
72125;SDS011;59999;51.676;22.650;2023-07-22T02:17:28;10.23;;;6.30;;
72125;SDS011;59999;51.676;22.650;2023-07-22T02:19:56;10.80;;;6.27;;
72125;SDS011;59999;51.676;22.650;2023-07-22T02:22:22;9.48;;;5.55;;
72125;SDS011;59999;51.676;22.650;2023-07-22T02:24:48;9.10;;;5.53;;
72125;SDS011;59999;51.676;22.650;2023-07-22T02:27:14;9.73;;;5.87;;
72125;SDS011;59999;51.676;22.650;2023-07-22T02:29:40;9.85;;;5.90;;
72125;SDS011;59999;51.676;22.650;2023-07-22T02:32:06;9.38;;;5.85;;
72125;SDS011;59999;51.676;22.650;2023-07-22T02:34:32;9.38;;;5.78;;
72125;SDS011;59999;51.676;22.650;2023-07-22T02:36:58;9.07;;;5.70;;
72125;SDS011;59999;51.676;22.650;2023-07-22T02:39:24;12.02;;;6.20;;
72125;SDS011;59999;51.676;22.650;2023-07-22T02:41:50;10.27;;;6.13;;
72125;SDS011;59999;51.676;22.650;2023-07-22T02:44:16;13.80;;;6.37;;
72125;SDS011;59999;51.676;22.650;2023-07-22T02:46:41;9.10;;;5.95;;
72125;SDS011;59999;51.676;22.650;2023-07-22T02:49:07;9.85;;;5.93;;
72125;SDS011;59999;51.676;22.650;2023-07-22T02:51:33;11.70;;;6.27;;
72125;SDS011;59999;51.676;22.650;2023-07-22T02:53:59;9.55;;;5.75;;
72125;SDS011;59999;51.676;22.650;2023-07-22T02:56:25;12.20;;;6.45;;
72125;SDS011;59999;51.676;22.650;2023-07-22T02:58:51;11.43;;;6.37;;
72125;SDS011;59999;51.676;22.650;2023-07-22T03:01:17;9.70;;;6.00;;
72125;SDS011;59999;51.676;22.650;2023-07-22T03:03:44;10.85;;;6.22;;
72125;SDS011;59999;51.676;22.650;2023-07-22T03:06:10;9.93;;;6.15;;
72125;SDS011;59999;51.676;22.650;2023-07-22T03:08:36;10.43;;;6.40;;
72125;SDS011;59999;51.676;22.650;2023-07-22T03:11:02;12.15;;;5.93;;
72125;SDS011;59999;51.676;22.650;2023-07-22T03:13:29;9.25;;;5.90;;
72125;SDS011;59999;51.676;22.650;2023-07-22T03:15:55;9.73;;;6.10;;
72125;SDS011;59999;51.676;22.650;2023-07-22T03:18:22;10.68;;;6.28;;
72125;SDS011;59999;51.676;22.650;2023-07-22T03:20:48;10.02;;;6.13;;
72125;SDS011;59999;51.676;22.650;2023-07-22T03:23:14;10.73;;;6.40;;
72125;SDS011;59999;51.676;22.650;2023-07-22T03:25:40;10.55;;;6.07;;
72125;SDS011;59999;51.676;22.650;2023-07-22T03:28:06;9.65;;;6.18;;
72125;SDS011;59999;51.676;22.650;2023-07-22T03:30:33;10.70;;;6.38;;
72125;SDS011;59999;51.676;22.650;2023-07-22T03:32:59;9.83;;;5.90;;
72125;SDS011;59999;51.676;22.650;2023-07-22T03:35:26;11.18;;;7.00;;
72125;SDS011;59999;51.676;22.650;2023-07-22T03:37:53;9.23;;;6.30;;
72125;SDS011;59999;51.676;22.650;2023-07-22T03:40:18;11.27;;;6.80;;
72125;SDS011;59999;51.676;22.650;2023-07-22T03:43:03;10.63;;;6.63;;
72125;SDS011;59999;51.676;22.650;2023-07-22T03:45:29;12.07;;;6.93;;
72125;SDS011;59999;51.676;22.650;2023-07-22T03:47:59;14.55;;;7.07;;
72125;SDS011;59999;51.676;22.650;2023-07-22T03:50:25;12.30;;;8.20;;
72125;SDS011;59999;51.676;22.650;2023-07-22T03:52:52;13.07;;;7.32;;
72125;SDS011;59999;51.676;22.650;2023-07-22T03:55:18;12.15;;;6.90;;
72125;SDS011;59999;51.676;22.650;2023-07-22T03:57:45;11.30;;;6.80;;
72125;SDS011;59999;51.676;22.650;2023-07-22T04:00:11;12.37;;;6.93;;
72125;SDS011;59999;51.676;22.650;2023-07-22T04:02:38;11.38;;;7.00;;
72125;SDS011;59999;51.676;22.650;2023-07-22T04:05:04;12.48;;;7.20;;
72125;SDS011;59999;51.676;22.650;2023-07-22T04:07:31;12.13;;;7.25;;
72125;SDS011;59999;51.676;22.650;2023-07-22T04:09:56;11.67;;;6.93;;
72125;SDS011;59999;51.676;22.650;2023-07-22T04:12:23;12.75;;;6.75;;
72125;SDS011;59999;51.676;22.650;2023-07-22T04:14:49;11.15;;;7.00;;
72125;SDS011;59999;51.676;22.650;2023-07-22T04:17:15;10.65;;;7.00;;
72125;SDS011;59999;51.676;22.650;2023-07-22T04:19:41;12.53;;;7.30;;
72125;SDS011;59999;51.676;22.650;2023-07-22T04:22:08;11.88;;;6.82;;
72125;SDS011;59999;51.676;22.650;2023-07-22T04:24:34;9.95;;;6.72;;
72125;SDS011;59999;51.676;22.650;2023-07-22T04:27:00;11.80;;;7.18;;
72125;SDS011;59999;51.676;22.650;2023-07-22T04:29:26;10.65;;;6.70;;
72125;SDS011;59999;51.676;22.650;2023-07-22T04:31:59;11.77;;;7.20;;
72125;SDS011;59999;51.676;22.650;2023-07-22T04:34:29;13.20;;;7.97;;
72125;SDS011;59999;51.676;22.650;2023-07-22T04:36:56;11.95;;;7.75;;
72125;SDS011;59999;51.676;22.650;2023-07-22T04:39:23;12.50;;;7.85;;
72125;SDS011;59999;51.676;22.650;2023-07-22T04:41:49;13.60;;;7.65;;
72125;SDS011;59999;51.676;22.650;2023-07-22T04:44:15;13.27;;;7.30;;
72125;SDS011;59999;51.676;22.650;2023-07-22T04:46:41;13.45;;;7.50;;
72125;SDS011;59999;51.676;22.650;2023-07-22T04:49:08;12.63;;;7.30;;
72125;SDS011;59999;51.676;22.650;2023-07-22T04:51:34;12.95;;;7.28;;
72125;SDS011;59999;51.676;22.650;2023-07-22T04:54:00;13.17;;;7.20;;
72125;SDS011;59999;51.676;22.650;2023-07-22T04:56:26;13.05;;;7.68;;
72125;SDS011;59999;51.676;22.650;2023-07-22T04:58:52;11.30;;;7.37;;
72125;SDS011;59999;51.676;22.650;2023-07-22T05:01:18;12.45;;;7.55;;
72125;SDS011;59999;51.676;22.650;2023-07-22T05:03:43;13.10;;;7.80;;
72125;SDS011;59999;51.676;22.650;2023-07-22T05:06:10;13.30;;;7.70;;
72125;SDS011;59999;51.676;22.650;2023-07-22T05:08:36;14.77;;;7.53;;
72125;SDS011;59999;51.676;22.650;2023-07-22T05:11:04;15.75;;;8.15;;
72125;SDS011;59999;51.676;22.650;2023-07-22T05:13:29;12.33;;;7.70;;
72125;SDS011;59999;51.676;22.650;2023-07-22T05:15:55;13.70;;;7.40;;
72125;SDS011;59999;51.676;22.650;2023-07-22T05:18:21;12.93;;;7.75;;
72125;SDS011;59999;51.676;22.650;2023-07-22T05:20:47;13.32;;;8.38;;
72125;SDS011;59999;51.676;22.650;2023-07-22T05:23:13;13.70;;;8.90;;
72125;SDS011;59999;51.676;22.650;2023-07-22T05:25:39;12.32;;;8.10;;
72125;SDS011;59999;51.676;22.650;2023-07-22T05:28:04;15.27;;;8.13;;
72125;SDS011;59999;51.676;22.650;2023-07-22T05:30:31;14.98;;;8.77;;
72125;SDS011;59999;51.676;22.650;2023-07-22T05:32:57;14.32;;;8.30;;
72125;SDS011;59999;51.676;22.650;2023-07-22T05:35:23;12.37;;;7.70;;
72125;SDS011;59999;51.676;22.650;2023-07-22T05:37:49;13.50;;;8.13;;
72125;SDS011;59999;51.676;22.650;2023-07-22T05:40:15;11.70;;;7.18;;
72125;SDS011;59999;51.676;22.650;2023-07-22T05:42:41;12.95;;;7.53;;
72125;SDS011;59999;51.676;22.650;2023-07-22T05:45:07;12.23;;;7.63;;
72125;SDS011;59999;51.676;22.650;2023-07-22T05:47:33;11.93;;;7.87;;
72125;SDS011;59999;51.676;22.650;2023-07-22T05:49:59;15.32;;;8.02;;
72125;SDS011;59999;51.676;22.650;2023-07-22T05:52:25;12.10;;;8.05;;
72125;SDS011;59999;51.676;22.650;2023-07-22T05:54:51;13.57;;;7.77;;
72125;SDS011;59999;51.676;22.650;2023-07-22T05:57:17;12.70;;;8.23;;
72125;SDS011;59999;51.676;22.650;2023-07-22T05:59:43;11.38;;;7.68;;
72125;SDS011;59999;51.676;22.650;2023-07-22T06:02:09;12.53;;;7.87;;
72125;SDS011;59999;51.676;22.650;2023-07-22T06:04:36;13.00;;;8.50;;
72125;SDS011;59999;51.676;22.650;2023-07-22T06:07:02;13.77;;;7.97;;
72125;SDS011;59999;51.676;22.650;2023-07-22T06:09:28;11.75;;;7.70;;
72125;SDS011;59999;51.676;22.650;2023-07-22T06:11:53;15.30;;;8.60;;
72125;SDS011;59999;51.676;22.650;2023-07-22T06:14:19;13.30;;;8.02;;
72125;SDS011;59999;51.676;22.650;2023-07-22T06:16:45;13.30;;;8.75;;
72125;SDS011;59999;51.676;22.650;2023-07-22T06:19:11;14.23;;;8.47;;
72125;SDS011;59999;51.676;22.650;2023-07-22T06:21:37;13.65;;;8.80;;
72125;SDS011;59999;51.676;22.650;2023-07-22T06:24:03;14.25;;;9.52;;
72125;SDS011;59999;51.676;22.650;2023-07-22T06:26:29;12.03;;;8.33;;
72125;SDS011;59999;51.676;22.650;2023-07-22T06:28:55;13.63;;;8.90;;
72125;SDS011;59999;51.676;22.650;2023-07-22T06:31:21;14.68;;;9.18;;
72125;SDS011;59999;51.676;22.650;2023-07-22T06:33:47;14.40;;;8.80;;
72125;SDS011;59999;51.676;22.650;2023-07-22T06:36:12;14.15;;;9.15;;
72125;SDS011;59999;51.676;22.650;2023-07-22T06:38:39;13.73;;;9.35;;
72125;SDS011;59999;51.676;22.650;2023-07-22T06:41:05;14.97;;;9.47;;
72125;SDS011;59999;51.676;22.650;2023-07-22T06:43:31;12.75;;;8.73;;
72125;SDS011;59999;51.676;22.650;2023-07-22T06:45:56;13.80;;;8.98;;
72125;SDS011;59999;51.676;22.650;2023-07-22T06:48:22;12.47;;;9.10;;
72125;SDS011;59999;51.676;22.650;2023-07-22T06:50:48;12.80;;;8.82;;
72125;SDS011;59999;51.676;22.650;2023-07-22T06:53:15;12.63;;;9.00;;
72125;SDS011;59999;51.676;22.650;2023-07-22T06:55:50;12.20;;;8.27;;
72125;SDS011;59999;51.676;22.650;2023-07-22T06:58:17;12.93;;;8.82;;
72125;SDS011;59999;51.676;22.650;2023-07-22T07:00:45;13.07;;;8.43;;
72125;SDS011;59999;51.676;22.650;2023-07-22T07:03:11;12.07;;;8.30;;
72125;SDS011;59999;51.676;22.650;2023-07-22T07:05:37;12.35;;;8.35;;
72125;SDS011;59999;51.676;22.650;2023-07-22T07:08:07;11.47;;;8.27;;
72125;SDS011;59999;51.676;22.650;2023-07-22T07:10:38;10.82;;;8.02;;
72125;SDS011;59999;51.676;22.650;2023-07-22T07:13:05;11.55;;;8.00;;
72125;SDS011;59999;51.676;22.650;2023-07-22T07:15:31;11.75;;;7.80;;
72125;SDS011;59999;51.676;22.650;2023-07-22T07:17:57;12.02;;;8.05;;
72125;SDS011;59999;51.676;22.650;2023-07-22T07:20:23;10.80;;;7.20;;
72125;SDS011;59999;51.676;22.650;2023-07-22T07:22:49;10.75;;;6.90;;
72125;SDS011;59999;51.676;22.650;2023-07-22T07:25:14;12.10;;;8.23;;
72125;SDS011;59999;51.676;22.650;2023-07-22T07:27:41;11.40;;;7.57;;
72125;SDS011;59999;51.676;22.650;2023-07-22T07:30:07;10.35;;;7.30;;
72125;SDS011;59999;51.676;22.650;2023-07-22T07:32:34;9.90;;;7.20;;
72125;SDS011;59999;51.676;22.650;2023-07-22T07:35:00;11.33;;;7.90;;
72125;SDS011;59999;51.676;22.650;2023-07-22T07:37:26;11.98;;;7.47;;
72125;SDS011;59999;51.676;22.650;2023-07-22T07:39:52;10.85;;;7.60;;
72125;SDS011;59999;51.676;22.650;2023-07-22T07:42:18;9.45;;;7.22;;
72125;SDS011;59999;51.676;22.650;2023-07-22T07:44:44;10.97;;;7.43;;
72125;SDS011;59999;51.676;22.650;2023-07-22T07:47:10;13.07;;;7.43;;
72125;SDS011;59999;51.676;22.650;2023-07-22T07:49:36;10.18;;;7.32;;
72125;SDS011;59999;51.676;22.650;2023-07-22T07:52:02;10.60;;;7.30;;
72125;SDS011;59999;51.676;22.650;2023-07-22T07:54:30;10.40;;;7.18;;
72125;SDS011;59999;51.676;22.650;2023-07-22T07:56:56;11.20;;;7.55;;
72125;SDS011;59999;51.676;22.650;2023-07-22T07:59:22;11.30;;;6.70;;
72125;SDS011;59999;51.676;22.650;2023-07-22T08:01:50;9.60;;;5.90;;
72125;SDS011;59999;51.676;22.650;2023-07-22T08:04:16;11.35;;;6.78;;
72125;SDS011;59999;51.676;22.650;2023-07-22T08:06:43;10.60;;;6.30;;
72125;SDS011;59999;51.676;22.650;2023-07-22T08:09:13;8.00;;;5.13;;
72125;SDS011;59999;51.676;22.650;2023-07-22T08:11:44;8.20;;;4.10;;
72125;SDS011;59999;51.676;22.650;2023-07-22T08:14:11;6.77;;;3.80;;
72125;SDS011;59999;51.676;22.650;2023-07-22T08:16:37;6.57;;;3.47;;
72125;SDS011;59999;51.676;22.650;2023-07-22T08:19:03;8.48;;;3.90;;
72125;SDS011;59999;51.676;22.650;2023-07-22T08:21:30;6.15;;;3.40;;
72125;SDS011;59999;51.676;22.650;2023-07-22T08:23:56;7.63;;;4.50;;
72125;SDS011;59999;51.676;22.650;2023-07-22T08:26:23;5.68;;;2.97;;
72125;SDS011;59999;51.676;22.650;2023-07-22T08:28:49;5.63;;;3.05;;
72125;SDS011;59999;51.676;22.650;2023-07-22T08:31:15;5.60;;;3.00;;
72125;SDS011;59999;51.676;22.650;2023-07-22T08:33:41;5.38;;;2.92;;
72125;SDS011;59999;51.676;22.650;2023-07-22T08:36:07;6.22;;;3.33;;
72125;SDS011;59999;51.676;22.650;2023-07-22T08:38:34;6.32;;;3.45;;
72125;SDS011;59999;51.676;22.650;2023-07-22T08:40:59;6.43;;;3.83;;
72125;SDS011;59999;51.676;22.650;2023-07-22T08:43:25;6.87;;;3.53;;
72125;SDS011;59999;51.676;22.650;2023-07-22T08:45:54;6.10;;;3.40;;
72125;SDS011;59999;51.676;22.650;2023-07-22T08:48:25;5.28;;;2.97;;
72125;SDS011;59999;51.676;22.650;2023-07-22T08:50:53;5.00;;;2.60;;
72125;SDS011;59999;51.676;22.650;2023-07-22T08:53:21;5.50;;;2.70;;
72125;SDS011;59999;51.676;22.650;2023-07-22T08:55:51;5.47;;;3.10;;
72125;SDS011;59999;51.676;22.650;2023-07-22T08:58:18;5.68;;;2.75;;
72125;SDS011;59999;51.676;22.650;2023-07-22T09:00:44;5.72;;;3.03;;
72125;SDS011;59999;51.676;22.650;2023-07-22T09:03:11;5.23;;;2.80;;
72125;SDS011;59999;51.676;22.650;2023-07-22T09:05:37;6.22;;;2.70;;
72125;SDS011;59999;51.676;22.650;2023-07-22T09:08:05;5.30;;;2.97;;
72125;SDS011;59999;51.676;22.650;2023-07-22T09:10:32;5.70;;;2.95;;
72125;SDS011;59999;51.676;22.650;2023-07-22T09:13:00;6.18;;;2.83;;
72125;SDS011;59999;51.676;22.650;2023-07-22T09:15:26;6.87;;;2.50;;
72125;SDS011;59999;51.676;22.650;2023-07-22T09:17:53;6.03;;;2.80;;
72125;SDS011;59999;51.676;22.650;2023-07-22T09:20:19;6.13;;;2.90;;
72125;SDS011;59999;51.676;22.650;2023-07-22T09:22:46;5.60;;;3.00;;
72125;SDS011;59999;51.676;22.650;2023-07-22T09:27:44;7.33;;;3.00;;
72125;SDS011;59999;51.676;22.650;2023-07-22T09:32:49;7.40;;;3.63;;
72125;SDS011;59999;51.676;22.650;2023-07-22T09:35:17;6.88;;;3.70;;
72125;SDS011;59999;51.676;22.650;2023-07-22T09:37:44;7.43;;;4.13;;
72125;SDS011;59999;51.676;22.650;2023-07-22T09:40:17;7.07;;;4.07;;
72125;SDS011;59999;51.676;22.650;2023-07-22T09:42:49;6.40;;;3.50;;
72125;SDS011;59999;51.676;22.650;2023-07-22T09:45:19;6.93;;;3.83;;
72125;SDS011;59999;51.676;22.650;2023-07-22T09:47:48;6.03;;;3.60;;
72125;SDS011;59999;51.676;22.650;2023-07-22T09:50:19;8.32;;;4.30;;
72125;SDS011;59999;51.676;22.650;2023-07-22T09:52:51;6.57;;;3.83;;
72125;SDS011;59999;51.676;22.650;2023-07-22T09:55:22;7.13;;;3.75;;
72125;SDS011;59999;51.676;22.650;2023-07-22T09:57:57;7.63;;;3.90;;
72125;SDS011;59999;51.676;22.650;2023-07-22T10:00:35;7.47;;;3.97;;
72125;SDS011;59999;51.676;22.650;2023-07-22T10:03:03;7.18;;;4.10;;
72125;SDS011;59999;51.676;22.650;2023-07-22T10:05:38;7.53;;;4.00;;
72125;SDS011;59999;51.676;22.650;2023-07-22T10:08:05;8.18;;;3.97;;
72125;SDS011;59999;51.676;22.650;2023-07-22T10:10:33;6.28;;;4.13;;
72125;SDS011;59999;51.676;22.650;2023-07-22T10:13:03;8.55;;;4.22;;
72125;SDS011;59999;51.676;22.650;2023-07-22T10:15:31;7.35;;;4.80;;
72125;SDS011;59999;51.676;22.650;2023-07-22T10:18:02;8.03;;;4.30;;
72125;SDS011;59999;51.676;22.650;2023-07-22T10:20:30;7.50;;;4.03;;
72125;SDS011;59999;51.676;22.650;2023-07-22T10:23:00;6.30;;;3.83;;
72125;SDS011;59999;51.676;22.650;2023-07-22T10:25:26;6.07;;;3.33;;
72125;SDS011;59999;51.676;22.650;2023-07-22T10:27:53;5.63;;;3.40;;
72125;SDS011;59999;51.676;22.650;2023-07-22T10:30:19;4.87;;;2.90;;
72125;SDS011;59999;51.676;22.650;2023-07-22T10:32:47;5.38;;;2.97;;
72125;SDS011;59999;51.676;22.650;2023-07-22T10:35:23;5.38;;;2.95;;
72125;SDS011;59999;51.676;22.650;2023-07-22T10:40:44;5.25;;;2.80;;
72125;SDS011;59999;51.676;22.650;2023-07-22T10:43:18;5.23;;;2.80;;
72125;SDS011;59999;51.676;22.650;2023-07-22T10:45:51;5.75;;;2.50;;
72125;SDS011;59999;51.676;22.650;2023-07-22T10:48:19;5.03;;;2.35;;
72125;SDS011;59999;51.676;22.650;2023-07-22T10:50:52;4.47;;;2.10;;
72125;SDS011;59999;51.676;22.650;2023-07-22T10:58:55;5.78;;;2.28;;
72125;SDS011;59999;51.676;22.650;2023-07-22T11:12:01;4.18;;;1.95;;
72125;SDS011;59999;51.676;22.650;2023-07-22T11:14:30;4.45;;;2.10;;
72125;SDS011;59999;51.676;22.650;2023-07-22T11:17:02;6.10;;;2.30;;
72125;SDS011;59999;51.676;22.650;2023-07-22T11:19:32;6.82;;;2.50;;
72125;SDS011;59999;51.676;22.650;2023-07-22T11:21:58;5.03;;;2.30;;
72125;SDS011;59999;51.676;22.650;2023-07-22T11:24:25;5.20;;;2.65;;
72125;SDS011;59999;51.676;22.650;2023-07-22T11:26:51;4.70;;;2.17;;
72125;SDS011;59999;51.676;22.650;2023-07-22T11:29:19;7.93;;;2.83;;
72125;SDS011;59999;51.676;22.650;2023-07-22T11:31:46;4.93;;;2.35;;
72125;SDS011;59999;51.676;22.650;2023-07-22T11:34:15;5.83;;;2.40;;
72125;SDS011;59999;51.676;22.650;2023-07-22T11:36:42;6.22;;;2.40;;
72125;SDS011;59999;51.676;22.650;2023-07-22T11:39:10;4.82;;;2.30;;
72125;SDS011;59999;51.676;22.650;2023-07-22T11:41:38;5.00;;;2.30;;
72125;SDS011;59999;51.676;22.650;2023-07-22T11:44:07;5.43;;;2.40;;
72125;SDS011;59999;51.676;22.650;2023-07-22T11:46:35;5.77;;;2.50;;
72125;SDS011;59999;51.676;22.650;2023-07-22T11:49:02;7.28;;;2.58;;
72125;SDS011;59999;51.676;22.650;2023-07-22T11:51:28;5.95;;;2.40;;
72125;SDS011;59999;51.676;22.650;2023-07-22T11:53:55;7.45;;;2.55;;
72125;SDS011;59999;51.676;22.650;2023-07-22T11:56:27;6.33;;;2.73;;
72125;SDS011;59999;51.676;22.650;2023-07-22T11:58:54;5.32;;;2.58;;
72125;SDS011;59999;51.676;22.650;2023-07-22T12:01:21;4.93;;;2.33;;
72125;SDS011;59999;51.676;22.650;2023-07-22T12:03:49;5.93;;;2.58;;
72125;SDS011;59999;51.676;22.650;2023-07-22T12:06:20;5.55;;;2.53;;
72125;SDS011;59999;51.676;22.650;2023-07-22T12:08:51;4.97;;;2.20;;
72125;SDS011;59999;51.676;22.650;2023-07-22T12:11:24;5.30;;;2.10;;
72125;SDS011;59999;51.676;22.650;2023-07-22T12:16:34;5.03;;;2.10;;
72125;SDS011;59999;51.676;22.650;2023-07-22T12:19:02;7.97;;;2.20;;
72125;SDS011;59999;51.676;22.650;2023-07-22T12:21:28;4.60;;;1.73;;
72125;SDS011;59999;51.676;22.650;2023-07-22T12:23:54;5.88;;;2.00;;
72125;SDS011;59999;51.676;22.650;2023-07-22T12:26:20;5.25;;;2.22;;
72125;SDS011;59999;51.676;22.650;2023-07-22T12:28:46;6.70;;;2.50;;
72125;SDS011;59999;51.676;22.650;2023-07-22T12:31:12;4.30;;;2.20;;
72125;SDS011;59999;51.676;22.650;2023-07-22T12:33:38;5.38;;;2.30;;
72125;SDS011;59999;51.676;22.650;2023-07-22T12:36:04;4.45;;;2.15;;
72125;SDS011;59999;51.676;22.650;2023-07-22T12:38:31;5.72;;;2.28;;
72125;SDS011;59999;51.676;22.650;2023-07-22T12:40:57;7.73;;;2.10;;
72125;SDS011;59999;51.676;22.650;2023-07-22T12:43:23;4.60;;;1.90;;
72125;SDS011;59999;51.676;22.650;2023-07-22T12:45:48;4.72;;;2.13;;
72125;SDS011;59999;51.676;22.650;2023-07-22T12:48:16;8.68;;;2.35;;
72125;SDS011;59999;51.676;22.650;2023-07-22T12:50:43;4.60;;;2.07;;
72125;SDS011;59999;51.676;22.650;2023-07-22T12:53:09;6.18;;;2.40;;
72125;SDS011;59999;51.676;22.650;2023-07-22T12:55:35;5.32;;;1.85;;
72125;SDS011;59999;51.676;22.650;2023-07-22T12:58:01;4.15;;;1.98;;
72125;SDS011;59999;51.676;22.650;2023-07-22T13:00:27;5.00;;;2.20;;
72125;SDS011;59999;51.676;22.650;2023-07-22T13:02:54;4.25;;;1.90;;
72125;SDS011;59999;51.676;22.650;2023-07-22T13:05:19;5.18;;;2.30;;
72125;SDS011;59999;51.676;22.650;2023-07-22T13:07:45;4.57;;;1.80;;
72125;SDS011;59999;51.676;22.650;2023-07-22T13:10:11;4.93;;;1.85;;
72125;SDS011;59999;51.676;22.650;2023-07-22T13:12:41;4.20;;;1.90;;
72125;SDS011;59999;51.676;22.650;2023-07-22T13:15:07;5.20;;;2.27;;
72125;SDS011;59999;51.676;22.650;2023-07-22T13:17:33;4.13;;;1.85;;
72125;SDS011;59999;51.676;22.650;2023-07-22T13:19:59;4.28;;;1.98;;
72125;SDS011;59999;51.676;22.650;2023-07-22T13:22:25;5.37;;;2.50;;
72125;SDS011;59999;51.676;22.650;2023-07-22T13:24:51;6.18;;;2.10;;
72125;SDS011;59999;51.676;22.650;2023-07-22T13:27:18;4.22;;;2.00;;
72125;SDS011;59999;51.676;22.650;2023-07-22T13:29:44;4.85;;;2.72;;
72125;SDS011;59999;51.676;22.650;2023-07-22T13:32:11;6.10;;;1.77;;
72125;SDS011;59999;51.676;22.650;2023-07-22T13:34:36;4.22;;;2.00;;
72125;SDS011;59999;51.676;22.650;2023-07-22T13:37:03;3.92;;;1.70;;
72125;SDS011;59999;51.676;22.650;2023-07-22T13:39:28;4.25;;;2.03;;
72125;SDS011;59999;51.676;22.650;2023-07-22T13:41:55;4.90;;;1.97;;
72125;SDS011;59999;51.676;22.650;2023-07-22T13:44:20;4.85;;;2.10;;
72125;SDS011;59999;51.676;22.650;2023-07-22T13:46:46;3.88;;;1.90;;
72125;SDS011;59999;51.676;22.650;2023-07-22T13:49:13;3.75;;;2.05;;
72125;SDS011;59999;51.676;22.650;2023-07-22T13:51:40;4.77;;;1.70;;
72125;SDS011;59999;51.676;22.650;2023-07-22T13:54:06;5.72;;;2.10;;
72125;SDS011;59999;51.676;22.650;2023-07-22T13:56:32;5.25;;;2.17;;
72125;SDS011;59999;51.676;22.650;2023-07-22T13:58:59;4.43;;;1.63;;
72125;SDS011;59999;51.676;22.650;2023-07-22T14:01:26;4.47;;;1.92;;
72125;SDS011;59999;51.676;22.650;2023-07-22T14:03:56;5.63;;;2.25;;
72125;SDS011;59999;51.676;22.650;2023-07-22T14:06:23;5.90;;;2.17;;
72125;SDS011;59999;51.676;22.650;2023-07-22T14:08:49;5.35;;;2.10;;
72125;SDS011;59999;51.676;22.650;2023-07-22T14:11:15;4.30;;;1.90;;
72125;SDS011;59999;51.676;22.650;2023-07-22T14:13:41;4.90;;;2.10;;
72125;SDS011;59999;51.676;22.650;2023-07-22T14:16:07;4.55;;;2.33;;
72125;SDS011;59999;51.676;22.650;2023-07-22T14:18:32;6.43;;;2.40;;
72125;SDS011;59999;51.676;22.650;2023-07-22T14:20:59;3.67;;;1.70;;
72125;SDS011;59999;51.676;22.650;2023-07-22T14:23:25;3.97;;;1.85;;
72125;SDS011;59999;51.676;22.650;2023-07-22T14:25:53;5.05;;;2.00;;
72125;SDS011;59999;51.676;22.650;2023-07-22T14:28:19;3.97;;;1.80;;
72125;SDS011;59999;51.676;22.650;2023-07-22T14:30:45;5.43;;;2.10;;
72125;SDS011;59999;51.676;22.650;2023-07-22T14:33:10;4.30;;;2.03;;
72125;SDS011;59999;51.676;22.650;2023-07-22T14:35:36;4.60;;;2.13;;
72125;SDS011;59999;51.676;22.650;2023-07-22T14:38:05;3.97;;;1.83;;
72125;SDS011;59999;51.676;22.650;2023-07-22T14:40:31;4.35;;;2.10;;
72125;SDS011;59999;51.676;22.650;2023-07-22T14:42:57;4.20;;;1.95;;
72125;SDS011;59999;51.676;22.650;2023-07-22T14:45:23;5.37;;;2.03;;
72125;SDS011;59999;51.676;22.650;2023-07-22T14:47:49;4.38;;;2.08;;
72125;SDS011;59999;51.676;22.650;2023-07-22T14:50:15;5.57;;;2.17;;
72125;SDS011;59999;51.676;22.650;2023-07-22T14:52:41;4.68;;;2.25;;